createdAt,value
2018-07-09T00:01:44.790Z,4.50
2018-07-09T00:04:18.538Z,5.30
2018-07-09T00:06:52.892Z,6.53
2018-07-09T00:09:27.446Z,6.93
2018-07-09T00:11:59.841Z,5.57
2018-07-09T00:14:33.474Z,8.20
2018-07-09T00:17:07.332Z,7.23
2018-07-09T00:19:41.136Z,4.23
2018-07-09T00:22:13.408Z,6.92
2018-07-09T00:24:47.537Z,7.20
2018-07-09T00:27:22.286Z,5.87
2018-07-09T00:29:56.121Z,6.27
2018-07-09T00:32:30.923Z,4.80
2018-07-09T00:35:04.854Z,6.83
2018-07-09T00:37:39.199Z,6.57
2018-07-09T00:40:12.975Z,9.40
2018-07-09T00:42:46.839Z,5.23
2018-07-09T00:45:21.027Z,6.22
2018-07-09T00:47:55.024Z,4.57
2018-07-09T01:07:08.831Z,6.73
2018-07-09T01:09:42.718Z,4.07
2018-07-09T01:12:17.642Z,8.50
2018-07-09T01:14:51.466Z,6.33
2018-07-09T01:17:25.937Z,7.53
2018-07-09T01:20:00.056Z,5.60
2018-07-09T01:22:34.001Z,3.57
2018-07-09T02:07:17.632Z,7.60
2018-07-09T02:09:51.044Z,6.47
2018-07-09T02:12:25.821Z,10.60
2018-07-09T02:18:51.813Z,8.27
2018-07-09T02:21:25.901Z,4.70
2018-07-09T02:23:59.497Z,4.70
2018-07-09T02:26:34.197Z,5.53
2018-07-09T02:29:08.492Z,5.77
2018-07-09T02:31:42.775Z,4.90
2018-07-09T02:34:17.203Z,10.40
2018-07-09T03:02:55.026Z,6.43
2018-07-09T03:05:28.511Z,3.92
2018-07-09T03:08:02.358Z,6.53
2018-07-09T03:10:36.184Z,6.53
2018-07-09T03:13:10.154Z,5.77
2018-07-09T03:15:44.257Z,5.50
2018-07-09T03:18:16.843Z,4.52
2018-07-09T03:20:50.928Z,4.67
2018-07-09T03:23:25.116Z,6.67
2018-07-09T03:25:59.127Z,4.00
2018-07-09T03:28:35.542Z,5.10
2018-07-09T03:31:10.516Z,5.10
2018-07-09T03:33:44.744Z,5.45
2018-07-09T03:36:19.225Z,7.85
2018-07-09T03:38:53.342Z,5.80
2018-07-09T03:41:27.629Z,7.72
2018-07-09T03:44:01.606Z,5.50
2018-07-09T03:46:35.696Z,6.55
2018-07-09T03:49:10.320Z,7.03
2018-07-09T03:51:45.923Z,7.55
2018-07-09T03:54:19.974Z,5.55
2018-07-09T03:56:53.715Z,6.87
2018-07-09T03:59:27.671Z,6.78
2018-07-09T04:01:59.966Z,5.60
2018-07-09T04:04:35.036Z,6.83
2018-07-09T04:20:15.515Z,5.20
2018-07-09T04:22:49.530Z,6.60
2018-07-09T04:25:22.430Z,7.58
2018-07-09T04:27:54.625Z,6.97
2018-07-09T04:30:28.503Z,6.20
2018-07-09T04:33:02.539Z,6.03
2018-07-09T04:35:36.123Z,6.57
2018-07-09T04:38:09.330Z,5.72
2018-07-09T04:40:43.275Z,6.22
2018-07-09T04:43:17.606Z,6.43
2018-07-09T04:45:51.750Z,4.42
2018-07-09T04:48:25.736Z,5.93
2018-07-09T04:51:00.046Z,4.80
2018-07-09T04:53:36.891Z,7.50
2018-07-09T04:56:11.139Z,6.07
2018-07-09T04:58:47.766Z,9.48
2018-07-09T05:01:21.957Z,6.47
2018-07-09T05:03:57.214Z,6.45
2018-07-09T05:06:31.082Z,3.35
2018-07-09T05:09:05.489Z,5.53
2018-07-09T05:11:39.412Z,4.97
2018-07-09T05:14:13.277Z,6.08
2018-07-09T05:16:47.014Z,4.35
2018-07-09T05:19:21.061Z,6.47
2018-07-09T05:21:53.602Z,5.25
2018-07-09T05:24:27.289Z,5.75
2018-07-09T05:27:02.069Z,7.00
2018-07-09T05:29:36.099Z,3.20
2018-07-09T05:32:10.217Z,5.45
2018-07-09T05:34:44.463Z,5.37
2018-07-09T05:37:18.603Z,7.72
2018-07-09T05:39:52.872Z,4.40
2018-07-09T05:42:27.123Z,5.27
2018-07-09T05:45:01.061Z,5.97
2018-07-09T05:47:35.310Z,10.60
2018-07-09T05:50:09.163Z,5.85
2018-07-09T05:52:43.381Z,5.55
2018-07-09T05:55:19.046Z,5.87
2018-07-09T05:57:53.168Z,5.75
2018-07-09T06:00:27.640Z,7.33
2018-07-09T06:03:01.398Z,4.47
2018-07-09T06:05:35.411Z,5.50
2018-07-09T06:08:10.385Z,4.23
2018-07-09T06:10:44.180Z,6.85
2018-07-09T06:13:17.667Z,9.73
2018-07-09T06:15:50.249Z,10.22
2018-07-09T06:18:24.218Z,7.30
2018-07-09T06:20:58.210Z,6.45
2018-07-09T06:23:31.966Z,6.20
2018-07-09T06:26:05.776Z,7.35
2018-07-09T06:31:40.824Z,5.67
2018-07-09T06:34:15.261Z,5.70
2018-07-09T06:36:52.188Z,5.03
2018-07-09T06:39:26.457Z,7.10
2018-07-09T06:42:00.387Z,5.58
2018-07-09T06:44:33.615Z,9.23
2018-07-09T06:47:07.584Z,5.35
2018-07-09T06:49:41.640Z,4.72
2018-07-09T06:54:46.434Z,5.30
2018-07-09T06:57:28.260Z,4.40
2018-07-09T07:00:02.209Z,7.87
2018-07-09T07:02:35.934Z,4.65
2018-07-09T07:05:10.356Z,4.55
2018-07-09T07:07:44.652Z,5.30
2018-07-09T07:10:18.904Z,9.50
2018-07-09T07:12:52.623Z,5.45
2018-07-09T07:15:26.891Z,5.90
2018-07-09T07:18:00.868Z,6.33
2018-07-09T07:20:35.011Z,6.83
2018-07-09T07:23:07.273Z,4.00
2018-07-09T07:25:41.657Z,4.50
2018-07-09T07:28:15.341Z,6.90
2018-07-09T07:30:49.704Z,4.33
2018-07-09T07:33:24.101Z,6.45
2018-07-09T07:35:59.202Z,6.65
2018-07-09T07:38:33.256Z,5.70
2018-07-09T07:41:07.433Z,10.63
2018-07-09T07:43:41.452Z,6.27
2018-07-09T07:46:15.726Z,6.90
2018-07-09T07:48:49.838Z,3.87
2018-07-09T07:51:22.125Z,6.85
2018-07-09T07:53:57.002Z,6.87
2018-07-09T07:56:30.715Z,6.40
2018-07-09T07:59:06.606Z,4.40
2018-07-09T08:01:40.663Z,4.10
2018-07-09T08:04:15.976Z,6.80
2018-07-09T08:06:51.641Z,6.03
2018-07-09T08:09:25.696Z,5.40
2018-07-09T08:12:59.675Z,6.13
2018-07-09T08:14:34.273Z,5.77
2018-07-09T08:17:08.002Z,5.35
2018-07-09T08:19:42.079Z,6.62
2018-07-09T08:22:16.395Z,6.08
2018-07-09T08:24:51.070Z,3.98
2018-07-09T08:27:25.118Z,7.87
2018-07-09T08:29:59.651Z,9.85
2018-07-09T08:32:32.438Z,6.67
2018-07-09T08:35:06.526Z,6.20
2018-07-09T08:37:41.162Z,6.08
2018-07-09T08:40:14.733Z,7.03
2018-07-09T08:42:49.915Z,13.75
2018-07-09T08:45:22.175Z,6.25
2018-07-09T08:47:54.885Z,5.95
2018-07-09T08:50:28.854Z,6.17
2018-07-09T08:53:02.427Z,7.65
2018-07-09T08:55:38.067Z,5.30
2018-07-09T08:58:12.065Z,6.87
2018-07-09T09:00:46.998Z,7.87
2018-07-09T09:03:20.924Z,6.65
2018-07-09T09:05:55.604Z,5.00
2018-07-09T09:08:30.052Z,6.53
2018-07-09T09:11:04.031Z,13.22
2018-07-09T09:13:38.617Z,26.82
2018-07-09T09:16:12.405Z,17.45
2018-07-09T09:18:46.717Z,23.62
2018-07-09T09:21:21.416Z,22.73
2018-07-09T09:23:55.474Z,24.37
2018-07-09T09:26:30.485Z,18.07
2018-07-09T09:29:07.046Z,8.33
2018-07-09T09:31:48.674Z,7.83
2018-07-09T09:34:24.439Z,8.50
2018-07-09T09:36:59.764Z,11.20
2018-07-09T09:39:33.943Z,9.08
2018-07-09T09:42:10.591Z,7.57
2018-07-09T09:44:42.596Z,6.60
2018-07-09T09:47:16.862Z,6.37
2018-07-09T09:49:51.013Z,9.60
2018-07-09T09:52:27.108Z,7.13
2018-07-09T09:55:01.980Z,8.60
2018-07-09T09:57:35.997Z,10.63
2018-07-09T10:00:12.822Z,10.20
2018-07-09T10:02:48.255Z,6.28
2018-07-09T10:05:22.045Z,8.55
2018-07-09T10:07:56.299Z,8.83
2018-07-09T10:10:30.459Z,15.60
2018-07-09T10:13:04.895Z,9.23
2018-07-09T10:15:38.740Z,6.43
2018-07-09T10:18:13.068Z,7.37
2018-07-09T10:20:50.357Z,6.03
2018-07-09T10:23:24.469Z,5.57
2018-07-09T10:26:01.250Z,12.47
2018-07-09T10:28:35.319Z,10.72
2018-07-09T10:31:09.206Z,12.80
2018-07-09T10:33:47.058Z,12.57
2018-07-09T10:36:23.435Z,11.10
2018-07-09T10:38:57.063Z,15.93
2018-07-09T10:41:32.372Z,13.23
2018-07-09T10:44:06.626Z,8.47
2018-07-09T10:46:41.579Z,11.03
2018-07-09T10:49:15.645Z,7.70
2018-07-09T10:51:52.531Z,10.27
2018-07-09T10:54:25.118Z,6.97
2018-07-09T10:56:59.038Z,7.45
2018-07-09T10:59:31.369Z,6.77
2018-07-09T11:02:04.947Z,11.60
2018-07-09T11:04:42.712Z,7.67
2018-07-09T11:07:14.984Z,7.73
2018-07-09T11:09:48.701Z,7.20
2018-07-09T11:12:22.580Z,8.23
2018-07-09T11:14:58.657Z,7.67
2018-07-09T11:17:32.621Z,6.97
2018-07-09T11:20:06.574Z,9.17
2018-07-09T11:22:40.426Z,9.75
2018-07-09T11:25:16.754Z,8.93
2018-07-09T11:27:51.562Z,10.23
2018-07-09T11:30:24.820Z,9.97
2018-07-09T11:32:58.755Z,8.13
2018-07-09T11:35:33.465Z,7.60
2018-07-09T11:38:15.710Z,8.40
2018-07-09T11:40:50.699Z,17.07
2018-07-09T11:43:26.867Z,16.70
2018-07-09T12:07:08.235Z,18.47
2018-07-09T12:09:42.940Z,9.90
2018-07-09T12:12:15.954Z,10.53
2018-07-09T12:14:50.101Z,14.70
2018-07-09T12:17:24.239Z,12.00
2018-07-09T12:19:56.229Z,8.87
2018-07-09T12:22:29.686Z,8.85
2018-07-09T12:25:03.662Z,8.45
2018-07-09T12:27:38.034Z,8.60
2018-07-09T12:30:13.277Z,5.20
2018-07-09T12:32:45.559Z,7.37
2018-07-09T12:35:18.843Z,6.47
2018-07-09T12:37:52.440Z,7.50
2018-07-09T12:40:26.296Z,7.47
2018-07-09T12:43:00.268Z,6.33
2018-07-09T12:45:34.368Z,5.57
2018-07-09T12:48:08.277Z,6.47
2018-07-09T12:50:40.458Z,14.47
2018-07-09T12:53:13.758Z,6.80
2018-07-09T12:55:48.638Z,9.73
2018-07-09T12:58:22.640Z,10.70
2018-07-09T13:00:56.690Z,6.63
2018-07-09T13:03:30.431Z,5.90
2018-07-09T13:06:04.467Z,5.37
2018-07-09T13:08:38.388Z,6.75
2018-07-09T13:11:14.085Z,9.83
2018-07-09T13:13:46.309Z,7.93
2018-07-09T13:16:20.117Z,8.03
2018-07-09T13:18:53.932Z,7.10
2018-07-09T13:21:28.096Z,8.43
2018-07-09T13:26:42.249Z,4.20
2018-07-09T13:29:16.321Z,4.63
2018-07-09T13:31:50.191Z,6.37
2018-07-09T13:34:24.294Z,4.53
2018-07-09T13:36:58.363Z,4.40
2018-07-09T13:39:32.295Z,5.10
2018-07-09T13:42:06.477Z,2.97
2018-07-09T13:44:41.186Z,7.62
2018-07-09T13:47:14.952Z,4.57
2018-07-09T13:49:47.652Z,4.87
2018-07-09T13:52:21.469Z,3.17
2018-07-09T13:54:55.763Z,5.95
2018-07-09T13:57:28.340Z,2.87
2018-07-09T14:00:01.154Z,4.03
2018-07-09T14:02:35.060Z,4.00
2018-07-09T14:05:08.968Z,6.30
2018-07-09T14:07:42.953Z,6.03
2018-07-09T14:10:17.215Z,5.13
2018-07-09T14:12:51.918Z,5.87
2018-07-09T14:15:26.106Z,3.83
2018-07-09T14:17:58.328Z,5.63
2018-07-09T14:20:36.993Z,5.93
2018-07-09T14:23:11.944Z,5.43
2018-07-09T14:25:46.178Z,4.72
2018-07-09T14:28:20.056Z,4.20
2018-07-09T14:30:54.288Z,4.77
2018-07-09T14:33:27.081Z,4.23
2018-07-09T14:36:01.116Z,4.17
2018-07-09T14:38:35.126Z,3.83
2018-07-09T14:41:08.809Z,4.30
2018-07-09T14:43:42.492Z,5.85
2018-07-09T14:46:16.495Z,4.10
2018-07-09T14:48:50.150Z,5.27
2018-07-09T14:51:24.214Z,4.07
2018-07-09T15:07:08.350Z,3.80
2018-07-09T15:32:31.187Z,9.47
2018-07-09T15:35:06.173Z,2.90
2018-07-09T15:37:40.454Z,3.13
2018-07-09T15:40:14.648Z,4.10
2018-07-09T15:42:48.167Z,4.07
2018-07-09T15:45:22.303Z,3.97
2018-07-09T15:47:56.650Z,4.33
2018-07-09T15:50:29.258Z,4.80
2018-07-09T15:53:01.753Z,6.50
2018-07-09T15:55:35.723Z,6.70
2018-07-09T15:58:08.545Z,5.33
2018-07-09T16:00:42.406Z,5.27
2018-07-09T16:03:17.559Z,6.60
2018-07-09T16:05:51.112Z,3.87
2018-07-09T16:08:25.174Z,4.93
2018-07-09T16:10:58.916Z,5.80
2018-07-09T16:13:33.103Z,4.27
2018-07-09T16:16:06.620Z,3.77
2018-07-09T16:18:41.353Z,4.93
2018-07-09T16:21:15.161Z,4.05
2018-07-09T16:23:49.441Z,3.70
2018-07-09T16:26:23.670Z,4.10
2018-07-09T16:28:56.766Z,4.03
2018-07-09T16:31:30.637Z,5.93
2018-07-09T16:34:04.758Z,5.03
2018-07-09T16:36:41.208Z,3.90
2018-07-09T16:39:15.566Z,5.50
2018-07-09T16:41:48.504Z,5.20
2018-07-09T16:44:22.827Z,4.83
2018-07-09T16:46:56.796Z,4.93
2018-07-09T16:49:29.861Z,5.23
2018-07-09T16:52:02.280Z,6.27
2018-07-09T16:54:36.225Z,3.47
2018-07-09T16:57:10.170Z,3.92
2018-07-09T16:59:42.984Z,4.40
2018-07-09T17:02:17.576Z,4.17
2018-07-09T17:04:51.618Z,3.77
2018-07-09T17:07:24.374Z,4.93
2018-07-09T17:09:58.717Z,5.00
2018-07-09T17:12:32.843Z,5.40
2018-07-09T17:15:08.031Z,6.63
2018-07-09T17:17:41.306Z,3.90
2018-07-09T17:20:15.370Z,4.17
2018-07-09T17:22:49.359Z,5.30
2018-07-09T17:25:22.673Z,3.70
2018-07-09T17:27:57.050Z,3.83
2018-07-09T17:30:32.858Z,6.13
2018-07-09T17:33:09.407Z,4.30
2018-07-09T17:35:45.007Z,5.10
2018-07-09T17:38:20.863Z,6.87
2018-07-09T17:40:54.984Z,6.87
2018-07-09T17:43:29.067Z,4.75
2018-07-09T17:46:03.143Z,5.70
2018-07-09T17:48:36.891Z,4.47
2018-07-09T17:51:11.487Z,4.50
2018-07-09T17:53:45.233Z,4.87
2018-07-09T17:56:17.905Z,5.70
2018-07-09T17:58:51.875Z,8.73
2018-07-09T18:01:25.700Z,5.63
2018-07-09T18:04:00.615Z,5.37
2018-07-09T18:06:34.587Z,7.17
2018-07-09T18:09:08.588Z,4.17
2018-07-09T18:11:42.240Z,3.67
2018-07-09T18:14:16.425Z,4.27
2018-07-09T18:16:49.933Z,4.50
2018-07-09T18:19:23.485Z,4.30
2018-07-09T18:21:57.062Z,4.70
2018-07-09T18:24:30.905Z,4.77
2018-07-09T18:27:04.929Z,7.62
2018-07-09T18:29:38.969Z,3.08
2018-07-09T18:32:13.957Z,7.03
2018-07-09T18:34:47.975Z,4.60
2018-07-09T18:37:21.680Z,4.10
2018-07-09T18:39:56.834Z,4.97
2018-07-09T18:42:30.810Z,4.13
2018-07-09T18:45:04.667Z,5.17
2018-07-09T18:47:38.190Z,6.47
2018-07-09T18:50:10.839Z,3.70
2018-07-09T18:52:45.149Z,4.28
2018-07-09T18:55:19.566Z,4.10
2018-07-09T18:57:53.339Z,5.13
2018-07-09T19:00:26.826Z,5.60
2018-07-09T19:03:00.496Z,4.47
2018-07-09T19:08:23.229Z,4.03
2018-07-09T19:10:57.804Z,5.30
2018-07-09T19:13:30.088Z,4.57
2018-07-09T19:16:04.042Z,5.33
2018-07-09T19:18:46.940Z,4.73
2018-07-09T19:21:30.760Z,4.40
2018-07-09T19:24:01.839Z,5.73
2018-07-09T19:26:32.651Z,6.17
2018-07-09T19:29:03.284Z,5.03
2018-07-09T19:31:33.805Z,5.10
2018-07-09T19:34:04.414Z,4.80
2018-07-09T19:36:35.126Z,4.20
2018-07-09T19:39:06.937Z,6.23
2018-07-09T19:41:38.167Z,6.47
2018-07-09T19:44:08.938Z,4.43
2018-07-09T19:46:40.241Z,4.40
2018-07-09T19:49:10.900Z,5.47
2018-07-09T19:51:41.467Z,5.07
2018-07-09T19:54:11.654Z,7.77
2018-07-09T19:56:42.076Z,5.27
2018-07-09T19:59:12.665Z,5.10
2018-07-09T20:01:43.090Z,3.80
2018-07-09T20:04:13.695Z,4.97
2018-07-09T20:06:44.259Z,5.93
2018-07-09T20:09:22.701Z,5.73
2018-07-09T20:11:55.418Z,4.33
2018-07-09T20:14:30.004Z,5.33
2018-07-09T20:17:04.270Z,6.00
2018-07-09T20:19:34.782Z,5.40
2018-07-09T20:22:06.223Z,5.43
2018-07-09T20:24:38.284Z,4.80
2018-07-09T20:27:09.246Z,5.13
2018-07-09T20:29:40.092Z,4.07
2018-07-09T20:32:10.905Z,5.70
2018-07-09T20:34:41.672Z,5.53
2018-07-09T20:37:12.634Z,5.00
2018-07-09T20:39:42.867Z,4.53
2018-07-09T20:42:14.353Z,5.73
2018-07-09T20:44:44.782Z,4.73
2018-07-09T20:47:16.328Z,6.57
2018-07-09T20:49:47.345Z,6.20
2018-07-09T20:52:17.656Z,6.97
2018-07-09T20:54:47.958Z,5.47
2018-07-09T20:57:19.231Z,5.20
2018-07-09T20:59:49.860Z,4.97
2018-07-09T21:02:20.494Z,5.43
2018-07-09T21:04:51.556Z,4.67
2018-07-09T21:07:22.105Z,6.80
2018-07-09T21:09:52.685Z,3.70
2018-07-09T21:12:23.107Z,5.60
2018-07-09T21:14:53.840Z,5.75
2018-07-09T21:17:24.384Z,5.23
2018-07-09T21:19:55.480Z,5.12
2018-07-09T21:22:25.948Z,5.77
2018-07-09T21:24:56.192Z,6.13
2018-07-09T21:27:26.602Z,4.07
2018-07-09T21:29:56.795Z,4.70
2018-07-09T21:32:27.445Z,6.23
2018-07-09T21:34:57.949Z,5.77
2018-07-09T21:37:28.558Z,4.63
2018-07-09T21:39:58.638Z,5.63
2018-07-09T21:42:29.885Z,6.53
2018-07-09T21:45:00.549Z,6.97
2018-07-09T21:47:30.626Z,5.87
2018-07-09T21:50:00.939Z,5.50
2018-07-09T21:52:31.410Z,5.03
2018-07-09T21:55:01.820Z,4.00
2018-07-09T21:57:32.508Z,6.03
2018-07-09T22:00:02.715Z,6.27
2018-07-09T22:02:33.250Z,7.55
2018-07-09T22:05:03.825Z,4.33
2018-07-09T22:07:35.704Z,6.10
2018-07-09T22:10:06.911Z,5.03
2018-07-09T22:12:37.397Z,4.97
2018-07-09T22:15:09.085Z,5.90
2018-07-09T22:17:40.136Z,6.33
2018-07-09T22:20:10.830Z,6.07
2018-07-09T22:22:41.184Z,4.53
2018-07-09T22:25:11.989Z,5.37
2018-07-09T22:27:42.824Z,6.90
2018-07-09T22:30:13.301Z,4.53
2018-07-09T22:32:47.775Z,6.77
2018-07-09T22:35:21.872Z,4.77
2018-07-09T22:37:55.757Z,5.10
2018-07-09T22:40:29.946Z,4.75
2018-07-09T22:43:08.679Z,4.30
2018-07-09T22:45:42.199Z,4.40
2018-07-09T22:48:16.032Z,4.60
2018-07-09T22:50:50.724Z,5.23
2018-07-09T23:07:10.217Z,6.03
2018-07-09T23:10:08.280Z,4.37
2018-07-09T23:13:49.223Z,6.47
2018-07-09T23:16:56.860Z,4.80
2018-07-09T23:19:39.242Z,6.67
2018-07-09T23:22:26.390Z,6.77
2018-07-09T23:24:57.108Z,7.03
2018-07-09T23:27:27.533Z,5.37
2018-07-09T23:29:58.207Z,7.17
2018-07-09T23:32:28.568Z,7.30
2018-07-09T23:34:59.307Z,6.53
2018-07-09T23:37:29.642Z,8.53
2018-07-09T23:40:00.234Z,11.37
2018-07-09T23:42:31.704Z,7.63
2018-07-09T23:45:03.165Z,8.67
2018-07-09T23:47:33.874Z,9.27
2018-07-09T23:50:04.103Z,7.63
2018-07-09T23:52:35.275Z,8.83
2018-07-09T23:55:05.759Z,9.73
2018-07-09T23:59:20.336Z,8.90
